Airfield :
LOGIN :

Register | Disclaimer

   EN    FR    IT 

 










Legend :    VFR   Marginal VFR   IFR   Intensive IFR   Very Intensive IFR
Visi :
Ceiling :
>= 8 km
>= 3000ft
5 to 8 km
1000 to 3000 ft
1500m to 5 km
500 to 1000 ft
800 to 1500m
200 to 500 ft
< 800m
< 200 ft
Symbols :   Thunderstorms  Fog  Heavy snow  Heavy precipitations  Wind > 20 kt
SIGMETs :     Misc.  Thunderstorms  Icing  Turbulence  Mountain Waves  Volcanic Ashes







- Airport Elevation : 1906 ft
- IATA code : INN


LOWI - Innsbruck

CURRENT METAR :
  • 211020Z VRB02KT 9999 -SHRA FEW008 SCT060 BKN090 19/16 Q1025 TEMPO TL1100 SHRA

EXPIRED METARs :
  • 210950Z 12005KT 060V170 9999 FEW008 SCT060 FEW060TCU BKN090 19/16 Q1025 TEMPO SHRA
  • 210920Z VRB02KT 9999 FEW006 SCT060 BKN100 18/16 Q1025 TEMPO SHRA
  • 210850Z 09003KT 350V160 9999 SHRA FEW006 SCT020 BKN070 18/16 Q1025 TEMPO NSW
  • 210820Z 12006KT 090V150 9999 FEW006 SCT020 BKN080 18/16 Q1025 TEMPO SHRA
  • 210750Z 12005KT 070V150 9999 FEW006 SCT020 BKN080 17/16 Q1024 TEMPO FM0830 SHRA
  • 210720Z 07006KT 040V100 9999 SHRA FEW008 SCT015 FEW060TCU BKN080 17/16 Q1025 BECMG NSW

TAF TAF LOWI
Valid from the 21 at 06:00 until the 22 at 06:00 UTC


210515Z 2106/2206 27005KT 9999 FEW010 SCT060 BKN090 TX25/2114Z TN15/2204Z
PROB40
TEMPO 2106/2110 27015KT TSRA FEW015 SCT060CB BKN080
TEMPO 2114/2119 VRB15G25KT TSRA SCT070 SCT080CB
BECMG 2119/2121 08004KT
No reported NOTAMs for that airfield.



MET'MAP, your aeronautical weather chart ! - Copyright ORBIFLY December 2007 - Disclaimer

ORBIFLY MET'MAP TEAM :

Programming & Development : Alexandra Zaïnal
Concept & Development : Baudouin d'Aumeries
Co-Development & Prog : Marc-Olivier Méhu
Technical & hardware support : Manuel Goepfert

Contact : metmap@orbifly.com




SOURCES & CREDITS :

   NOAA